createdAt,value
2018-10-03T00:02:26.842Z,10.03
2018-10-03T00:04:55.410Z,10.40
2018-10-03T00:07:23.829Z,11.27
2018-10-03T00:09:52.503Z,10.90
2018-10-03T00:12:20.992Z,8.50
2018-10-03T00:14:56.121Z,15.17
2018-10-03T00:17:24.857Z,9.70
2018-10-03T00:19:53.663Z,11.20
2018-10-03T00:22:22.448Z,12.27
2018-10-03T00:24:51.185Z,11.50
2018-10-03T00:27:19.843Z,10.40
2018-10-03T00:29:48.450Z,7.90
2018-10-03T00:32:17.211Z,9.20
2018-10-03T00:34:45.740Z,11.33
2018-10-03T00:37:14.388Z,16.47
2018-10-03T00:39:42.937Z,11.30
2018-10-03T00:42:11.462Z,9.77
2018-10-03T00:44:39.961Z,10.08
2018-10-03T00:47:08.827Z,9.97
2018-10-03T00:49:37.723Z,10.00
2018-10-03T00:52:06.154Z,14.17
2018-10-03T00:54:34.686Z,11.10
2018-10-03T00:57:03.383Z,10.77
2018-10-03T00:59:31.719Z,8.90
2018-10-03T01:02:00.104Z,9.27
2018-10-03T01:04:28.577Z,8.80
2018-10-03T01:06:57.114Z,8.50
2018-10-03T01:09:25.558Z,11.30
2018-10-03T01:11:54.724Z,9.07
2018-10-03T01:14:23.284Z,9.80
2018-10-03T01:16:51.938Z,12.97
2018-10-03T01:19:20.953Z,12.53
2018-10-03T01:21:49.582Z,10.30
2018-10-03T01:24:18.219Z,9.70
2018-10-03T01:26:46.940Z,12.40
2018-10-03T01:29:15.524Z,10.63
2018-10-03T01:31:44.057Z,8.87
2018-10-03T01:34:12.634Z,8.37
2018-10-03T01:36:41.320Z,9.00
2018-10-03T01:39:11.068Z,12.07
2018-10-03T01:41:40.324Z,9.33
2018-10-03T01:44:09.786Z,8.57
2018-10-03T01:46:38.984Z,10.73
2018-10-03T01:49:08.148Z,10.13
2018-10-03T01:51:36.917Z,16.13
2018-10-03T01:54:05.554Z,10.48
2018-10-03T01:56:34.202Z,8.77
2018-10-03T01:59:02.892Z,9.90
2018-10-03T02:01:31.472Z,9.87
2018-10-03T02:03:59.917Z,9.43
2018-10-03T02:06:28.391Z,8.97
2018-10-03T02:08:56.997Z,12.53
2018-10-03T02:11:25.398Z,7.93
2018-10-03T02:13:54.041Z,10.88
2018-10-03T02:16:22.997Z,11.70
2018-10-03T02:18:52.079Z,8.63
2018-10-03T02:21:20.682Z,7.97
2018-10-03T02:23:49.173Z,11.67
2018-10-03T02:26:17.937Z,8.70
2018-10-03T02:28:46.819Z,8.73
2018-10-03T02:31:15.437Z,13.33
2018-10-03T02:33:44.262Z,9.80
2018-10-03T02:36:13.063Z,9.40
2018-10-03T02:38:41.797Z,13.07
2018-10-03T02:41:10.466Z,8.60
2018-10-03T02:43:39.229Z,10.33
2018-10-03T02:46:08.110Z,8.97
2018-10-03T02:48:36.808Z,9.60
2018-10-03T02:51:05.625Z,9.40
2018-10-03T02:53:34.175Z,8.60
2018-10-03T02:56:02.989Z,15.60
2018-10-03T02:58:31.531Z,9.57
2018-10-03T03:01:00.272Z,9.87
2018-10-03T03:03:28.919Z,9.93
2018-10-03T03:05:57.409Z,9.00
2018-10-03T03:08:25.929Z,10.07
2018-10-03T03:10:54.997Z,13.23
2018-10-03T03:13:23.647Z,11.77
2018-10-03T03:15:52.651Z,9.13
2018-10-03T03:18:21.249Z,12.03
2018-10-03T03:20:50.073Z,7.60
2018-10-03T03:23:18.601Z,9.00
2018-10-03T03:25:47.208Z,10.10
2018-10-03T03:28:15.570Z,11.80
2018-10-03T03:30:44.146Z,13.50
2018-10-03T03:33:12.968Z,11.50
2018-10-03T03:35:41.384Z,11.30
2018-10-03T03:38:09.803Z,9.45
2018-10-03T03:40:38.474Z,9.60
2018-10-03T03:43:07.198Z,10.93
2018-10-03T03:45:35.866Z,9.43
2018-10-03T03:48:04.422Z,16.50
2018-10-03T03:50:32.911Z,10.57
2018-10-03T03:53:01.410Z,10.73
2018-10-03T03:55:29.892Z,10.40
2018-10-03T03:57:58.267Z,10.67
2018-10-03T04:00:38.856Z,13.70
2018-10-03T04:03:07.278Z,9.57
2018-10-03T04:05:35.797Z,9.50
2018-10-03T04:08:04.114Z,8.30
2018-10-03T04:10:32.519Z,8.87
2018-10-03T04:13:01.008Z,8.93
2018-10-03T04:15:29.520Z,11.10
2018-10-03T04:17:57.990Z,15.10
2018-10-03T04:20:26.414Z,12.10
2018-10-03T04:22:55.094Z,8.90
2018-10-03T04:25:23.661Z,9.73
2018-10-03T04:27:52.393Z,8.10
2018-10-03T04:30:21.053Z,10.37
2018-10-03T04:32:49.680Z,8.50
2018-10-03T04:35:18.754Z,8.00
2018-10-03T04:37:47.286Z,8.20
2018-10-03T04:40:15.737Z,7.60
2018-10-03T04:42:44.274Z,7.80
2018-10-03T04:45:12.740Z,8.10
2018-10-03T04:47:41.504Z,8.70
2018-10-03T04:50:09.959Z,8.47
2018-10-03T04:52:38.687Z,11.17
2018-10-03T04:55:07.376Z,11.20
2018-10-03T04:57:35.808Z,8.60
2018-10-03T05:00:04.485Z,9.60
2018-10-03T05:02:32.879Z,9.50
2018-10-03T05:05:01.390Z,12.93
2018-10-03T05:07:30.014Z,9.57
2018-10-03T05:09:58.499Z,10.23
2018-10-03T05:12:26.975Z,10.83
2018-10-03T05:14:55.467Z,10.00
2018-10-03T05:17:24.124Z,11.40
2018-10-03T05:19:52.806Z,8.53
2018-10-03T05:22:21.875Z,8.20
2018-10-03T05:24:50.381Z,9.07
2018-10-03T05:27:18.959Z,11.12
2018-10-03T05:29:47.553Z,7.53
2018-10-03T05:32:15.975Z,10.40
2018-10-03T05:34:44.444Z,9.93
2018-10-03T05:37:12.921Z,9.90
2018-10-03T05:39:41.584Z,10.57
2018-10-03T05:42:10.236Z,9.03
2018-10-03T05:44:39.157Z,9.73
2018-10-03T05:47:07.668Z,8.90
2018-10-03T05:49:36.340Z,11.20
2018-10-03T05:52:05.016Z,9.27
2018-10-03T05:54:33.824Z,7.63
2018-10-03T05:57:02.587Z,11.53
2018-10-03T05:59:31.298Z,9.67
2018-10-03T06:02:00.056Z,11.33
2018-10-03T06:04:28.751Z,11.53
2018-10-03T06:06:57.553Z,11.87
2018-10-03T06:09:26.228Z,9.40
2018-10-03T06:11:55.031Z,9.60
2018-10-03T06:14:23.797Z,10.10
2018-10-03T06:16:54.142Z,7.90
2018-10-03T06:19:22.739Z,8.70
2018-10-03T06:21:51.887Z,8.10
2018-10-03T06:24:20.703Z,7.90
2018-10-03T06:26:49.245Z,11.90
2018-10-03T06:29:17.788Z,8.03
2018-10-03T06:31:46.586Z,8.70
2018-10-03T06:34:15.703Z,10.13
2018-10-03T06:36:44.138Z,13.03
2018-10-03T06:39:12.722Z,8.98
2018-10-03T06:41:41.670Z,7.80
2018-10-03T06:44:10.638Z,7.77
2018-10-03T06:46:40.219Z,9.60
2018-10-03T06:49:08.816Z,9.93
2018-10-03T06:51:37.534Z,10.50
2018-10-03T06:54:06.279Z,12.40
2018-10-03T06:56:34.737Z,8.13
2018-10-03T06:59:03.292Z,8.80
2018-10-03T07:01:31.981Z,8.93
2018-10-03T07:04:00.780Z,8.93
2018-10-03T07:06:29.483Z,8.30
2018-10-03T07:11:51.726Z,9.50
2018-10-03T07:14:20.499Z,12.30
2018-10-03T07:16:49.045Z,10.80
2018-10-03T07:19:17.705Z,12.23
2018-10-03T07:21:46.422Z,10.83
2018-10-03T07:24:15.070Z,12.33
2018-10-03T07:26:43.656Z,10.60
2018-10-03T07:29:12.652Z,9.30
2018-10-03T07:31:41.160Z,8.67
2018-10-03T07:34:09.741Z,12.43
2018-10-03T07:36:38.214Z,9.00
2018-10-03T07:39:09.211Z,9.43
2018-10-03T07:41:37.953Z,11.37
2018-10-03T07:44:06.742Z,7.10
2018-10-03T07:46:35.024Z,11.10
2018-10-03T07:49:03.680Z,8.30
2018-10-03T07:51:32.192Z,9.07
2018-10-03T07:54:00.841Z,8.73
2018-10-03T07:56:29.303Z,6.50
2018-10-03T07:58:57.958Z,7.70
2018-10-03T08:01:26.615Z,7.10
2018-10-03T08:03:55.157Z,6.37
2018-10-03T08:06:23.751Z,10.33
2018-10-03T08:08:52.571Z,6.90
2018-10-03T08:11:21.208Z,7.27
2018-10-03T08:13:50.121Z,7.90
2018-10-03T08:16:18.710Z,6.87
2018-10-03T08:18:47.287Z,7.13
2018-10-03T08:21:15.978Z,8.13
2018-10-03T08:23:44.708Z,7.20
2018-10-03T08:26:13.490Z,6.90
2018-10-03T08:28:42.238Z,7.40
2018-10-03T08:31:10.948Z,7.97
2018-10-03T08:33:39.550Z,7.90
2018-10-03T08:36:08.077Z,9.30
2018-10-03T08:38:36.843Z,8.83
2018-10-03T08:41:05.477Z,9.00
2018-10-03T08:43:33.911Z,8.20
2018-10-03T08:46:02.384Z,7.73
2018-10-03T08:48:31.247Z,8.57
2018-10-03T08:51:00.071Z,8.80
2018-10-03T08:53:28.999Z,7.75
2018-10-03T08:55:57.529Z,12.20
2018-10-03T08:58:26.369Z,9.73
2018-10-03T09:00:55.043Z,8.30
2018-10-03T09:03:23.746Z,8.87
2018-10-03T09:05:52.461Z,7.22
2018-10-03T09:08:21.128Z,7.40
2018-10-03T09:10:49.759Z,10.30
2018-10-03T09:13:18.266Z,7.60
2018-10-03T09:15:46.759Z,9.43
2018-10-03T09:18:15.561Z,7.83
2018-10-03T09:20:44.201Z,7.57
2018-10-03T09:23:12.826Z,11.35
2018-10-03T09:25:41.351Z,9.70
2018-10-03T09:28:10.115Z,8.20
2018-10-03T09:30:38.728Z,7.63
2018-10-03T09:33:07.563Z,8.73
2018-10-03T09:35:36.024Z,10.40
2018-10-03T09:38:04.480Z,8.83
2018-10-03T09:40:32.918Z,7.60
2018-10-03T09:43:01.344Z,7.90
2018-10-03T09:45:29.870Z,11.00
2018-10-03T09:47:58.431Z,10.70
2018-10-03T09:50:26.896Z,10.00
2018-10-03T09:52:55.472Z,9.87
2018-10-03T09:55:24.111Z,10.83
2018-10-03T09:57:52.828Z,13.80
2018-10-03T10:00:27.048Z,10.83
2018-10-03T10:02:55.817Z,13.20
2018-10-03T10:05:24.522Z,10.67
2018-10-03T10:07:53.597Z,9.33
2018-10-03T10:10:22.441Z,9.37
2018-10-03T10:12:51.152Z,11.03
2018-10-03T10:15:20.166Z,11.97
2018-10-03T10:17:49.070Z,10.43
2018-10-03T10:20:17.833Z,10.13
2018-10-03T10:22:46.562Z,11.30
2018-10-03T10:25:15.285Z,10.23
2018-10-03T10:27:43.978Z,9.20
2018-10-03T10:30:12.635Z,10.27
2018-10-03T10:32:41.284Z,11.73
2018-10-03T10:35:10.078Z,9.90
2018-10-03T10:37:38.649Z,12.57
2018-10-03T10:40:07.594Z,11.10
2018-10-03T10:42:37.501Z,11.33
2018-10-03T10:45:06.493Z,9.07
2018-10-03T10:47:35.043Z,12.40
2018-10-03T10:50:03.921Z,13.33
2018-10-03T10:52:32.819Z,11.27
2018-10-03T10:55:01.679Z,9.90
2018-10-03T10:57:30.145Z,11.10
2018-10-03T10:59:58.783Z,11.73
2018-10-03T11:02:27.401Z,10.80
2018-10-03T11:04:56.228Z,10.83
2018-10-03T11:07:25.364Z,11.20
2018-10-03T11:09:54.406Z,9.85
2018-10-03T11:12:23.151Z,9.97
2018-10-03T11:14:51.899Z,11.50
2018-10-03T11:17:20.454Z,10.10
2018-10-03T11:19:49.061Z,8.23
2018-10-03T11:22:17.903Z,11.10
2018-10-03T11:24:46.513Z,10.70
2018-10-03T11:27:15.069Z,9.67
2018-10-03T11:29:43.913Z,10.47
2018-10-03T11:32:12.666Z,9.33
2018-10-03T11:34:40.974Z,12.67
2018-10-03T11:37:09.361Z,10.40
2018-10-03T11:39:38.230Z,8.80
2018-10-03T11:42:06.894Z,9.80
2018-10-03T11:44:35.363Z,8.50
2018-10-03T11:47:04.233Z,8.37
2018-10-03T11:49:32.917Z,9.50
2018-10-03T11:52:01.638Z,14.13
2018-10-03T11:54:30.156Z,14.40
2018-10-03T11:56:58.751Z,10.30
2018-10-03T11:59:27.360Z,20.40
2018-10-03T12:01:55.915Z,13.27
2018-10-03T12:04:24.498Z,8.53
2018-10-03T12:06:53.068Z,8.35
2018-10-03T12:09:21.742Z,11.53
2018-10-03T12:11:50.270Z,8.40
2018-10-03T12:14:18.858Z,12.13
2018-10-03T12:16:47.614Z,10.33
2018-10-03T12:19:16.031Z,15.97
2018-10-03T12:21:44.486Z,12.23
2018-10-03T12:24:13.029Z,16.00
2018-10-03T12:26:41.758Z,12.93
2018-10-03T12:29:10.462Z,11.53
2018-10-03T12:31:39.161Z,11.90
2018-10-03T12:34:07.880Z,9.57
2018-10-03T12:36:36.230Z,10.23
2018-10-03T12:39:06.609Z,10.40
2018-10-03T12:41:35.176Z,8.03
2018-10-03T12:44:03.675Z,8.10
2018-10-03T12:46:32.215Z,11.63
2018-10-03T12:49:00.911Z,9.50
2018-10-03T12:51:29.524Z,8.27
2018-10-03T12:53:57.912Z,7.23
2018-10-03T12:56:26.347Z,9.83
2018-10-03T12:58:55.029Z,8.73
2018-10-03T13:01:23.594Z,9.00
2018-10-03T13:03:52.420Z,16.27
2018-10-03T13:06:21.088Z,9.23
2018-10-03T13:08:49.842Z,10.27
2018-10-03T13:11:18.680Z,9.47
2018-10-03T13:13:47.208Z,9.37
2018-10-03T13:16:15.809Z,8.83
2018-10-03T13:18:44.303Z,8.90
2018-10-03T13:21:13.006Z,7.97
2018-10-03T13:23:41.732Z,8.30
2018-10-03T13:31:06.166Z,12.00
2018-10-03T13:33:34.733Z,10.47
2018-10-03T13:36:03.449Z,11.10
2018-10-03T13:38:32.115Z,9.80
2018-10-03T13:41:00.918Z,8.90
2018-10-03T13:43:29.399Z,10.33
2018-10-03T13:45:58.017Z,12.73
2018-10-03T13:48:26.818Z,9.30
2018-10-03T13:50:55.500Z,8.10
2018-10-03T13:53:24.101Z,9.87
2018-10-03T13:55:52.764Z,8.27
2018-10-03T13:58:21.383Z,11.53
2018-10-03T14:00:49.956Z,11.10
2018-10-03T14:03:18.497Z,10.33
2018-10-03T14:05:47.043Z,10.83
2018-10-03T14:08:15.720Z,9.83
2018-10-03T14:10:44.420Z,11.17
2018-10-03T14:13:13.110Z,11.07
2018-10-03T14:15:41.630Z,9.13
2018-10-03T14:18:10.183Z,10.00
2018-10-03T14:20:39.460Z,9.15
2018-10-03T14:23:08.150Z,9.85
2018-10-03T14:25:36.589Z,9.70
2018-10-03T14:28:05.219Z,8.10
2018-10-03T14:30:33.895Z,9.90
2018-10-03T14:33:02.632Z,7.87
2018-10-03T14:35:31.155Z,9.38
2018-10-03T14:37:59.782Z,9.30
2018-10-03T14:40:28.421Z,8.80
2018-10-03T14:42:56.991Z,11.67
2018-10-03T14:45:26.331Z,8.33
2018-10-03T14:47:55.048Z,8.13
2018-10-03T14:50:23.800Z,8.17
2018-10-03T14:52:53.196Z,8.43
2018-10-03T14:55:21.901Z,10.70
2018-10-03T14:57:51.630Z,10.38
2018-10-03T15:00:20.389Z,9.27
2018-10-03T15:02:48.865Z,9.20
2018-10-03T15:05:17.458Z,8.60
2018-10-03T15:07:45.877Z,8.70
2018-10-03T15:10:14.438Z,9.20
2018-10-03T15:12:42.930Z,10.87
2018-10-03T15:15:11.575Z,8.90
2018-10-03T15:17:40.018Z,9.93
2018-10-03T15:20:08.737Z,8.97
2018-10-03T15:22:37.697Z,7.90
2018-10-03T15:25:06.355Z,8.10
2018-10-03T15:27:35.242Z,9.73
2018-10-03T15:30:03.836Z,8.27
2018-10-03T15:32:32.443Z,8.60
2018-10-03T15:35:01.026Z,9.20
2018-10-03T15:37:29.863Z,10.23
2018-10-03T15:39:58.529Z,9.63
2018-10-03T15:42:27.333Z,8.97
2018-10-03T15:44:56.193Z,9.07
2018-10-03T15:47:25.154Z,8.90
2018-10-03T15:49:54.204Z,11.30
2018-10-03T15:52:22.874Z,9.10
2018-10-03T15:54:51.845Z,8.70
2018-10-03T15:57:20.965Z,8.57
2018-10-03T15:59:49.656Z,13.30
2018-10-03T16:02:18.413Z,9.60
2018-10-03T16:04:48.074Z,9.50
2018-10-03T16:07:16.656Z,8.53
2018-10-03T16:09:45.534Z,8.93
2018-10-03T16:12:14.020Z,9.53
2018-10-03T16:14:42.894Z,9.33
2018-10-03T16:17:11.507Z,11.80
2018-10-03T16:19:40.246Z,10.40
2018-10-03T16:22:09.065Z,10.27
2018-10-03T16:24:37.758Z,11.67
2018-10-03T16:27:06.421Z,9.43
2018-10-03T16:29:35.590Z,11.50
2018-10-03T16:32:04.080Z,9.30
2018-10-03T16:34:32.553Z,11.20
2018-10-03T16:37:01.096Z,10.50
2018-10-03T16:39:29.590Z,10.77
2018-10-03T16:41:57.978Z,16.12
2018-10-03T16:44:26.766Z,14.40
2018-10-03T16:46:55.171Z,11.83
2018-10-03T16:49:24.011Z,12.70
2018-10-03T16:51:52.996Z,13.43
2018-10-03T16:54:21.719Z,11.10
2018-10-03T16:56:50.204Z,9.40
2018-10-03T16:59:19.054Z,10.93
2018-10-03T17:01:47.952Z,10.13
2018-10-03T17:04:16.548Z,11.63
2018-10-03T17:06:45.254Z,11.33
2018-10-03T17:09:14.078Z,9.07
2018-10-03T17:11:42.658Z,9.13
2018-10-03T17:14:30.148Z,11.40
2018-10-03T17:16:58.674Z,9.37
2018-10-03T17:19:27.298Z,10.63
2018-10-03T17:21:56.354Z,11.23
2018-10-03T17:24:26.367Z,9.93
2018-10-03T17:26:55.090Z,9.33
2018-10-03T17:29:23.850Z,8.97
2018-10-03T17:31:52.377Z,8.33
2018-10-03T17:34:20.942Z,9.70
2018-10-03T17:36:50.737Z,8.93
2018-10-03T17:39:19.685Z,11.23
2018-10-03T17:41:48.329Z,9.60
2018-10-03T17:44:17.938Z,9.00
2018-10-03T17:46:46.984Z,8.97
2018-10-03T17:49:15.451Z,9.67
2018-10-03T17:51:44.338Z,10.27
2018-10-03T17:54:13.123Z,10.13
2018-10-03T17:56:41.982Z,9.03
2018-10-03T17:59:11.118Z,10.07
2018-10-03T18:01:42.370Z,8.60
2018-10-03T18:04:10.900Z,9.30
2018-10-03T18:06:39.608Z,9.10
2018-10-03T18:09:10.061Z,15.45
2018-10-03T18:11:39.332Z,16.53
2018-10-03T18:14:08.471Z,12.80
2018-10-03T18:16:37.629Z,15.30
2018-10-03T18:19:06.808Z,17.47
2018-10-03T18:21:36.217Z,15.03
2018-10-03T18:24:04.823Z,14.17
2018-10-03T18:26:33.487Z,15.70
2018-10-03T18:29:02.193Z,13.23
2018-10-03T18:31:30.776Z,13.05
2018-10-03T18:33:59.511Z,14.80
2018-10-03T18:36:28.033Z,11.87
2018-10-03T18:38:56.720Z,11.10
2018-10-03T18:41:25.422Z,14.80
2018-10-03T18:43:54.135Z,14.70
2018-10-03T18:46:22.981Z,12.90
2018-10-03T18:48:51.779Z,14.43
2018-10-03T18:51:20.451Z,11.17
2018-10-03T18:53:49.783Z,15.18
2018-10-03T18:56:18.437Z,16.33
2018-10-03T18:58:47.194Z,11.23
2018-10-03T19:01:15.813Z,13.07
2018-10-03T19:03:44.610Z,15.80
2018-10-03T19:06:13.229Z,14.00
2018-10-03T19:08:41.735Z,12.90
2018-10-03T19:11:10.270Z,13.13
2018-10-03T19:13:39.151Z,15.77
2018-10-03T19:16:07.938Z,14.00
2018-10-03T19:18:36.921Z,13.00
2018-10-03T19:21:05.582Z,12.60
2018-10-03T19:23:34.353Z,11.77
2018-10-03T19:26:03.109Z,14.10
2018-10-03T19:28:31.634Z,11.43
2018-10-03T19:31:00.094Z,13.93
2018-10-03T19:33:28.838Z,13.33
2018-10-03T19:35:57.222Z,12.73
2018-10-03T19:38:25.795Z,14.80
2018-10-03T19:40:54.493Z,19.27
2018-10-03T19:43:23.255Z,13.97
2018-10-03T19:45:52.230Z,11.60
2018-10-03T19:48:20.782Z,9.03
2018-10-03T19:50:49.447Z,14.50
2018-10-03T19:53:23.245Z,14.53
2018-10-03T19:55:51.793Z,13.30
2018-10-03T19:58:20.511Z,12.00
2018-10-03T20:00:49.305Z,12.17
2018-10-03T20:03:17.851Z,11.10
2018-10-03T20:05:46.320Z,11.38
2018-10-03T20:08:14.834Z,10.50
2018-10-03T20:10:43.447Z,13.00
2018-10-03T20:13:11.916Z,12.90
2018-10-03T20:15:40.364Z,15.23
2018-10-03T20:18:08.979Z,14.93
2018-10-03T20:20:37.717Z,11.77
2018-10-03T20:23:06.175Z,13.20
2018-10-03T20:25:34.504Z,10.70
2018-10-03T20:28:03.211Z,12.87
2018-10-03T20:30:31.786Z,11.47
2018-10-03T20:33:00.382Z,10.20
2018-10-03T20:35:28.825Z,12.13
2018-10-03T20:37:57.226Z,11.63
2018-10-03T20:40:25.921Z,11.47
2018-10-03T20:42:56.106Z,11.37
2018-10-03T20:45:25.865Z,10.30
2018-10-03T20:47:54.740Z,11.30
2018-10-03T20:50:23.345Z,11.40
2018-10-03T20:52:51.952Z,11.27
2018-10-03T20:55:20.677Z,11.40
2018-10-03T20:57:49.081Z,11.15
2018-10-03T21:00:18.148Z,9.90
2018-10-03T21:02:47.002Z,10.20
2018-10-03T21:05:15.695Z,8.97
2018-10-03T21:07:44.234Z,11.37
2018-10-03T21:10:12.764Z,10.93
2018-10-03T21:12:41.501Z,12.20
2018-10-03T21:15:10.050Z,10.43
2018-10-03T21:17:38.858Z,11.40
2018-10-03T21:20:07.748Z,11.70
2018-10-03T21:22:36.417Z,10.80
2018-10-03T21:25:05.096Z,10.63
2018-10-03T21:27:33.584Z,11.60
2018-10-03T21:30:02.220Z,12.00
2018-10-03T21:32:30.736Z,11.03
2018-10-03T21:34:59.496Z,12.30
2018-10-03T21:37:27.912Z,9.50
2018-10-03T21:39:56.409Z,10.20
2018-10-03T21:42:24.823Z,12.43
2018-10-03T21:44:53.509Z,11.73
2018-10-03T21:47:22.110Z,11.40
2018-10-03T21:49:50.798Z,10.87
2018-10-03T21:52:19.273Z,11.87
2018-10-03T21:54:47.977Z,12.43
2018-10-03T21:57:16.728Z,11.77
2018-10-03T21:59:45.301Z,12.00
2018-10-03T22:02:14.597Z,13.35
2018-10-03T22:04:43.187Z,10.80
2018-10-03T22:07:11.879Z,11.60
2018-10-03T22:09:41.434Z,11.00
2018-10-03T22:12:10.170Z,11.47
2018-10-03T22:14:39.085Z,11.63
2018-10-03T22:17:11.906Z,11.60
2018-10-03T22:19:40.539Z,14.97
2018-10-03T22:22:09.628Z,13.70
2018-10-03T22:27:31.042Z,12.63
2018-10-03T22:29:59.524Z,12.65
2018-10-03T22:32:28.160Z,11.87
2018-10-03T22:34:56.912Z,13.13
2018-10-03T22:37:25.510Z,11.90
2018-10-03T22:39:54.398Z,11.40
2018-10-03T22:42:23.103Z,11.33
2018-10-03T22:44:51.768Z,11.80
2018-10-03T22:47:20.351Z,10.43
2018-10-03T22:49:48.925Z,11.57
2018-10-03T22:52:17.578Z,13.53
2018-10-03T22:54:46.100Z,13.20
2018-10-03T22:57:14.748Z,12.18
2018-10-03T22:59:43.507Z,13.43
2018-10-03T23:02:12.265Z,12.70
2018-10-03T23:04:40.873Z,16.67
2018-10-03T23:07:09.630Z,21.23
2018-10-03T23:09:38.672Z,14.83
2018-10-03T23:12:07.610Z,14.40
2018-10-03T23:14:36.071Z,13.30
2018-10-03T23:17:04.779Z,20.10
2018-10-03T23:19:33.384Z,22.00
2018-10-03T23:22:01.923Z,16.30
2018-10-03T23:24:30.624Z,23.17
2018-10-03T23:26:59.447Z,21.27
2018-10-03T23:29:28.017Z,15.10
2018-10-03T23:31:56.461Z,15.77
2018-10-03T23:34:24.943Z,16.77
2018-10-03T23:36:53.411Z,19.10
2018-10-03T23:39:22.098Z,16.10
2018-10-03T23:41:50.693Z,13.53
2018-10-03T23:44:19.066Z,14.90
2018-10-03T23:46:47.513Z,17.33
2018-10-03T23:49:15.924Z,17.73
2018-10-03T23:51:44.364Z,16.30
2018-10-03T23:54:13.107Z,20.97
2018-10-03T23:56:41.749Z,18.57
2018-10-03T23:59:10.387Z,24.07
